Time;durP1;ratioP1;P1;durP2;ratioP2;P2;SDS_P1;SDS_P2;PMS_P1;PMS_P2;Temp;Humidity;BMP_temperature;BMP_pressure;BME280_temperature;BME280_humidity;BME280_pressure;Samples;Min_cycle;Max_cycle;Signal;HPM_P1;HPM_P2
2021/10/16 00:03:20;;;;;;;12.58;4.72;;;;;;;9.37;94.99;100482.59;2837147;84;21032;-70
2021/10/16 00:07:22;;;;;;;5.30;3.65;;;;;;;9.42;94.85;100489.27;2837285;84;21037;-70
2021/10/16 00:11:24;;;;;;;10.58;3.85;;;;;;;9.45;94.57;100490.86;2836950;84;21041;-69
2021/10/16 00:15:26;;;;;;;7.62;4.20;;;;;;;9.49;94.39;100487.00;2837168;84;21048;-70
2021/10/16 00:19:27;;;;;;;14.38;3.75;;;;;;;9.50;94.18;100498.00;2836842;83;21056;-70
2021/10/16 00:23:30;;;;;;;3.47;3.05;;;;;;;9.53;93.49;100502.21;2837091;84;21013;-70
2021/10/16 00:27:31;;;;;;;4.03;3.22;;;;;;;9.51;93.40;100502.81;2837152;84;21045;-70
2021/10/16 00:31:33;;;;;;;3.98;3.35;;;;;;;9.47;93.29;100500.88;2837173;84;21038;-70
2021/10/16 00:35:35;;;;;;;7.22;4.03;;;;;;;9.49;92.90;100502.94;2837400;84;21056;-69
2021/10/16 00:39:37;;;;;;;11.30;5.37;;;;;;;9.46;92.50;100507.16;2837185;84;21064;-70
2021/10/16 00:43:39;;;;;;;18.98;9.65;;;;;;;9.42;91.99;100509.18;2837108;84;21434;-70
2021/10/16 00:47:42;;;;;;;9.88;7.72;;;;;;;9.38;91.75;100519.66;2837134;84;21017;-69
2021/10/16 00:51:44;;;;;;;11.83;7.03;;;;;;;9.33;91.54;100514.31;2831995;84;21113;-70
2021/10/16 00:55:49;;;;;;;8.33;5.90;;;;;;;9.26;91.72;100522.73;2823867;82;21034;-70
2021/10/16 00:59:50;;;;;;;9.93;5.37;;;;;;;9.22;91.82;100516.42;2823589;84;20963;-70
2021/10/16 01:03:52;;;;;;;11.53;4.03;;;;;;;9.21;91.84;100510.75;2823243;84;21031;-70
2021/10/16 01:07:54;;;;;;;7.03;4.42;;;;;;;9.14;91.82;100511.20;2823391;84;21170;-71
2021/10/16 01:11:59;;;;;;;6.85;3.52;;;;;;;9.09;91.61;100515.14;2823272;84;20999;-71
2021/10/16 01:16:00;;;;;;;7.33;4.70;;;;;;;9.02;91.95;100513.87;2823279;84;21051;-70
2021/10/16 01:20:12;;;;;;;8.40;4.50;;;;;;;9.00;92.32;100508.20;2823314;84;20972;-70
2021/10/16 01:24:16;;;;;;;4.87;4.37;;;;;;;9.05;92.23;100516.33;2823271;84;21108;-70
2021/10/16 01:28:19;;;;;;;9.10;3.92;;;;;;;9.05;92.00;100510.53;2823338;84;21082;-70
2021/10/16 01:32:21;;;;;;;4.85;3.35;;;;;;;9.02;91.87;100506.77;2823248;84;21046;-70
2021/10/16 01:36:22;;;;;;;9.23;5.55;;;;;;;8.99;91.77;100512.30;2823457;84;21372;-70
2021/10/16 01:40:24;;;;;;;6.03;4.33;;;;;;;8.97;91.87;100506.27;2823304;84;21113;-71
2021/10/16 01:44:26;;;;;;;9.23;4.70;;;;;;;8.96;91.93;100508.05;2823348;84;21034;-70
2021/10/16 01:48:28;;;;;;;11.65;4.45;;;;;;;8.94;91.73;100511.30;2823367;84;21034;-70
2021/10/16 01:52:30;;;;;;;8.43;5.22;;;;;;;8.90;91.82;100517.78;2811303;83;21075;-69
2021/10/16 01:56:32;;;;;;;10.75;4.78;;;;;;;8.87;91.96;100516.69;2799404;84;20995;-70
2021/10/16 02:00:34;;;;;;;7.42;4.20;;;;;;;8.83;92.25;100513.39;2799465;85;21438;-70
2021/10/16 02:04:36;;;;;;;8.50;4.47;;;;;;;8.82;92.44;100517.47;2815080;84;20987;-71
2021/10/16 02:08:40;;;;;;;6.53;4.80;;;;;;;8.81;92.56;100518.42;2815249;84;20995;-70
2021/10/16 02:12:42;;;;;;;8.40;4.72;;;;;;;8.78;92.80;100518.64;2814962;84;21038;-70
2021/10/16 02:16:43;;;;;;;9.33;5.05;;;;;;;8.79;92.80;100522.99;2814960;84;21086;-71
2021/10/16 02:20:45;;;;;;;8.83;5.05;;;;;;;8.79;92.70;100521.20;2815002;83;21034;-70
2021/10/16 02:24:46;;;;;;;14.15;5.37;;;;;;;8.80;92.41;100529.99;2814972;84;21034;-71
2021/10/16 02:28:48;;;;;;;11.43;5.62;;;;;;;8.75;91.97;100530.80;2814985;84;21104;-71
2021/10/16 02:32:49;;;;;;;8.53;4.60;;;;;;;8.67;91.96;100530.02;2814943;84;21078;-70
2021/10/16 02:36:51;;;;;;;13.78;6.55;;;;;;;8.65;91.67;100530.60;2814929;84;21062;-70
2021/10/16 02:40:52;;;;;;;16.17;6.58;;;;;;;8.61;91.39;100534.43;2815048;84;21089;-70
2021/10/16 02:44:55;;;;;;;10.88;5.45;;;;;;;8.55;91.65;100539.67;2814945;84;21050;-70
2021/10/16 02:48:56;;;;;;;11.45;6.45;;;;;;;8.49;91.86;100547.53;2815234;84;21040;-69
2021/10/16 02:52:58;;;;;;;9.03;5.37;;;;;;;8.46;91.88;100548.25;2814757;83;21085;-70
2021/10/16 02:57:00;;;;;;;14.20;7.17;;;;;;;8.39;91.71;100550.47;2815049;84;21007;-70
2021/10/16 03:01:02;;;;;;;13.08;7.28;;;;;;;8.37;91.36;100557.19;2814928;84;21082;-70
2021/10/16 03:05:04;;;;;;;8.45;5.58;;;;;;;8.31;91.31;100566.89;2814893;84;21101;-69
2021/10/16 03:09:06;;;;;;;11.55;5.45;;;;;;;8.28;91.24;100571.08;2814887;84;21105;-70
2021/10/16 03:13:07;;;;;;;10.30;4.75;;;;;;;8.24;91.32;100568.23;2815214;84;21097;-70
2021/10/16 03:17:09;;;;;;;11.33;5.12;;;;;;;8.18;91.43;100576.61;2814772;84;21006;-70
2021/10/16 03:21:11;;;;;;;7.22;4.62;;;;;;;8.12;91.60;100577.41;2814901;84;21101;-71
2021/10/16 03:25:13;;;;;;;11.05;4.95;;;;;;;8.09;91.92;100580.27;2814798;84;21051;-70
2021/10/16 03:29:15;;;;;;;7.65;3.77;;;;;;;8.06;92.14;100580.94;2815314;84;21070;-70
2021/10/16 03:33:16;;;;;;;7.05;4.72;;;;;;;8.05;92.41;100581.39;2814943;84;21015;-71
2021/10/16 03:37:17;;;;;;;15.75;4.83;;;;;;;8.05;92.56;100585.38;2814859;84;21078;-70
2021/10/16 03:41:19;;;;;;;7.85;3.62;;;;;;;8.02;92.71;100586.91;2815070;84;21106;-70
2021/10/16 03:45:21;;;;;;;9.05;4.22;;;;;;;8.03;93.06;100585.95;2815218;84;21057;-70
2021/10/16 03:49:22;;;;;;;19.50;5.70;;;;;;;8.04;93.18;100594.27;2815431;84;21066;-69
2021/10/16 03:53:24;;;;;;;11.00;4.28;;;;;;;8.05;93.15;100596.46;2815244;83;21069;-70
2021/10/16 03:57:26;;;;;;;10.72;3.80;;;;;;;8.05;92.94;100595.14;2815203;84;21035;-70
2021/10/16 04:01:27;;;;;;;5.95;3.40;;;;;;;8.02;92.64;100603.30;2799389;85;21015;-71
2021/10/16 04:05:29;;;;;;;7.28;3.25;;;;;;;7.99;92.55;100599.90;2799335;85;21011;-70
2021/10/16 04:09:30;;;;;;;8.30;4.28;;;;;;;7.94;92.34;100609.09;2799332;83;21054;-70
2021/10/16 04:13:32;;;;;;;7.17;4.70;;;;;;;7.88;92.24;100612.16;2799580;83;21067;-70
2021/10/16 04:17:34;;;;;;;7.83;4.00;;;;;;;7.79;92.34;100606.98;2799410;85;21015;-70
2021/10/16 04:21:35;;;;;;;9.10;3.83;;;;;;;7.76;92.65;100618.61;2799549;84;21528;-71
2021/10/16 04:25:37;;;;;;;11.12;5.45;;;;;;;7.76;92.86;100616.42;2798939;85;21007;-71
2021/10/16 04:29:38;;;;;;;10.38;4.85;;;;;;;7.76;92.83;100622.58;2815174;84;21089;-70
2021/10/16 04:33:40;;;;;;;9.58;4.15;;;;;;;7.74;92.74;100626.27;2814919;84;21043;-70
2021/10/16 04:37:42;;;;;;;8.13;5.00;;;;;;;7.72;92.09;100628.54;2815114;84;21081;-70
2021/10/16 04:41:44;;;;;;;7.25;4.53;;;;;;;7.66;91.91;100630.27;2815356;84;21125;-70
2021/10/16 04:45:45;;;;;;;10.60;4.65;;;;;;;7.62;91.81;100636.72;2799191;84;21054;-69
2021/10/16 04:49:47;;;;;;;13.32;5.83;;;;;;;7.64;92.10;100640.11;2815237;84;20983;-69
2021/10/16 04:53:49;;;;;;;6.67;4.30;;;;;;;7.64;92.18;100649.84;2814982;83;21051;-70
2021/10/16 04:57:51;;;;;;;6.17;4.87;;;;;;;7.62;92.04;100655.71;2814670;84;21105;-70
2021/10/16 05:01:54;;;;;;;10.08;3.55;;;;;;;7.58;91.66;100651.94;2815090;84;21062;-70
2021/10/16 05:05:56;;;;;;;9.93;4.78;;;;;;;7.47;91.72;100660.19;2814748;84;21011;-71
2021/10/16 05:09:57;;;;;;;9.78;4.67;;;;;;;7.32;92.18;100665.97;2815018;84;21089;-70
2021/10/16 05:13:59;;;;;;;9.98;4.35;;;;;;;7.19;92.38;100672.02;2814909;84;21043;-70
2021/10/16 05:18:01;;;;;;;10.85;3.90;;;;;;;7.17;93.04;100669.07;2814979;84;21073;-70
2021/10/16 05:22:03;;;;;;;6.95;3.85;;;;;;;7.24;93.07;100669.92;2815309;84;20995;-69
2021/10/16 05:26:05;;;;;;;5.83;3.40;;;;;;;7.33;92.61;100675.61;2815009;84;21050;-70
2021/10/16 05:30:08;;;;;;;4.33;3.87;;;;;;;7.40;91.94;100677.78;2815093;84;21046;-70
2021/10/16 05:34:10;;;;;;;16.23;3.92;;;;;;;7.49;91.54;100685.63;2815009;84;21026;-70
2021/10/16 05:38:12;;;;;;;7.35;3.25;;;;;;;7.55;91.26;100678.61;2815073;84;21062;-70
2021/10/16 05:42:14;;;;;;;10.82;4.53;;;;;;;7.61;90.55;100677.38;2815093;84;21086;-70
2021/10/16 05:46:15;;;;;;;16.10;4.15;;;;;;;7.66;90.52;100694.28;2815146;84;21469;-70
2021/10/16 05:50:17;;;;;;;12.35;4.97;;;;;;;7.69;90.54;100687.00;2815167;84;21018;-69
2021/10/16 05:54:19;;;;;;;8.23;4.62;;;;;;;7.71;90.40;100688.23;2814963;83;21059;-69
2021/10/16 05:58:22;;;;;;;7.75;3.70;;;;;;;7.74;90.87;100697.31;2814935;84;21030;-69
2021/10/16 06:02:23;;;;;;;7.83;3.90;;;;;;;7.82;91.19;100700.30;2815043;84;21023;-69
2021/10/16 06:06:25;;;;;;;15.00;5.92;;;;;;;7.89;91.77;100700.77;2814876;84;21038;-70
2021/10/16 06:10:26;;;;;;;14.38;5.90;;;;;;;7.99;92.44;100711.63;2815251;84;21003;-69
2021/10/16 06:14:28;;;;;;;5.80;3.87;;;;;;;8.09;92.99;100712.75;2814747;84;21074;-70
2021/10/16 06:18:30;;;;;;;7.65;5.42;;;;;;;8.22;93.21;100724.72;2814963;84;21601;-69
2021/10/16 06:22:31;;;;;;;9.40;5.00;;;;;;;8.38;93.72;100729.86;2815249;84;20976;-70
2021/10/16 06:26:33;;;;;;;14.38;7.45;;;;;;;8.54;93.94;100721.77;2815130;84;21058;-69
2021/10/16 06:30:34;;;;;;;17.80;5.83;;;;;;;8.78;94.11;100719.77;2815123;84;21079;-69
2021/10/16 06:34:37;;;;;;;20.23;6.12;;;;;;;8.97;93.24;100726.00;2815156;84;21050;-70
2021/10/16 06:38:39;;;;;;;12.15;5.80;;;;;;;9.04;92.03;100729.55;2815260;84;20995;-69
2021/10/16 06:42:40;;;;;;;14.00;5.37;;;;;;;9.04;91.85;100733.06;2815324;84;21026;-70
2021/10/16 06:46:42;;;;;;;8.58;5.37;;;;;;;9.04;91.78;100741.02;2815094;84;21551;-69
2021/10/16 06:50:44;;;;;;;10.50;6.55;;;;;;;9.01;92.08;100750.53;2815138;84;21558;-70
2021/10/16 06:54:45;;;;;;;11.73;7.08;;;;;;;8.97;92.40;100752.53;2814760;83;21039;-70
2021/10/16 06:58:48;;;;;;;13.65;9.28;;;;;;;8.91;93.09;100752.95;2815240;84;21074;-70
2021/10/16 07:02:50;;;;;;;15.93;8.65;;;;;;;8.91;93.62;100754.28;2815546;83;21094;-69
2021/10/16 07:06:52;;;;;;;22.90;11.03;;;;;;;9.06;94.26;100764.33;2814822;83;21309;-70
2021/10/16 07:10:53;;;;;;;15.08;8.18;;;;;;;9.21;93.56;100767.73;2815346;84;21015;-69
2021/10/16 07:14:55;;;;;;;13.18;7.42;;;;;;;9.39;92.55;100770.07;2815124;83;21002;-70
2021/10/16 07:18:56;;;;;;;20.90;8.98;;;;;;;9.45;92.30;100767.02;2815411;84;20995;-71
2021/10/16 07:22:58;;;;;;;12.10;8.98;;;;;;;9.53;92.42;100771.30;2815385;84;21118;-69
2021/10/16 07:27:00;;;;;;;18.85;8.68;;;;;;;9.64;92.43;100779.01;2815333;83;20975;-69
2021/10/16 07:31:02;;;;;;;14.73;8.60;;;;;;;9.78;92.52;100772.22;2815160;84;21007;-69
2021/10/16 07:35:05;;;;;;;13.00;7.25;;;;;;;9.91;92.08;100770.03;2814790;84;21109;-69
2021/10/16 07:39:08;;;;;;;15.18;8.05;;;;;;;10.03;91.97;100770.49;2815222;84;21010;-69
2021/10/16 07:43:11;;;;;;;17.40;8.58;;;;;;;10.21;91.65;100779.40;2815253;84;21046;-69
2021/10/16 07:47:12;;;;;;;25.72;9.88;;;;;;;10.31;90.93;100779.11;2815527;84;21090;-69
2021/10/16 07:51:14;;;;;;;24.60;9.98;;;;;;;10.41;91.13;100786.80;2815258;84;21030;-69
2021/10/16 07:55:16;;;;;;;15.72;7.12;;;;;;;10.59;91.22;100785.58;2811772;82;21062;-69
2021/10/16 07:59:18;;;;;;;21.05;8.60;;;;;;;10.71;90.14;100789.50;2810529;84;21098;-69
2021/10/16 08:03:20;;;;;;;13.53;8.28;;;;;;;10.92;91.02;100803.48;2810890;84;21090;-69
2021/10/16 08:07:21;;;;;;;15.25;8.08;;;;;;;11.15;90.93;100795.57;2810583;84;21367;-70
2021/10/16 08:11:23;;;;;;;9.40;7.53;;;;;;;11.28;89.47;100807.45;2810627;79;21308;-69
2021/10/16 08:15:25;;;;;;;15.05;7.75;;;;;;;11.26;87.35;100803.59;2810789;84;21018;-70
2021/10/16 08:19:26;;;;;;;19.23;9.33;;;;;;;11.19;88.12;100811.67;2810535;82;21413;-70
2021/10/16 08:23:28;;;;;;;16.77;7.83;;;;;;;11.22;89.57;100802.14;2780255;84;21056;-70
2021/10/16 08:27:29;;;;;;;13.03;7.15;;;;;;;11.32;89.40;100806.28;2810900;84;21058;-70
2021/10/16 08:31:31;;;;;;;16.12;8.03;;;;;;;11.27;86.47;100805.30;2787018;83;20992;-70
2021/10/16 08:35:32;;;;;;;15.75;9.30;;;;;;;11.17;86.86;100814.11;2763459;86;21046;-69
2021/10/16 08:39:33;;;;;;;15.60;7.97;;;;;;;11.19;87.85;100818.33;2763630;86;21011;-69
2021/10/16 08:43:35;;;;;;;16.48;7.53;;;;;;;11.34;87.51;100810.14;2763236;86;20951;-69
2021/10/16 08:47:38;;;;;;;17.75;7.40;;;;;;;11.55;86.69;100808.48;2763270;86;21002;-70
2021/10/16 08:51:42;;;;;;;13.28;7.70;;;;;;;11.70;85.80;100821.58;2782089;83;21065;-69
2021/10/16 08:55:43;;;;;;;15.78;8.28;;;;;;;11.88;84.54;100822.44;2785669;82;21082;-69
2021/10/16 08:59:45;;;;;;;12.98;5.67;;;;;;;11.86;83.26;100822.55;2785426;84;21083;-69
2021/10/16 09:03:51;;;;;;;11.88;5.58;;;;;;;11.87;82.53;100814.91;2809898;82;21090;-69
2021/10/16 09:07:52;;;;;;;11.95;6.97;;;;;;;11.86;82.84;100819.41;2809512;84;21105;-70
2021/10/16 09:11:54;;;;;;;10.50;6.40;;;;;;;11.96;83.44;100827.52;2809560;84;21094;-69
2021/10/16 09:15:57;;;;;;;17.65;8.10;;;;;;;12.10;82.96;100823.79;2806845;83;21101;-70
2021/10/16 09:20:09;;;;;;;16.20;6.22;;;;;;;12.28;83.41;100816.14;2808960;82;21134;-68
2021/10/16 09:24:41;;;;;;;8.90;5.70;;;;;;;12.51;82.23;100824.56;2798995;84;21070;-69
2021/10/16 09:28:43;;;;;;;15.35;7.03;;;;;;;12.72;82.42;100825.97;2763357;86;21054;-68
2021/10/16 09:32:55;;;;;;;14.60;6.05;;;;;;;12.88;79.70;100822.87;2763628;84;21078;-69
2021/10/16 09:37:11;;;;;;;14.83;6.53;;;;;;;13.02;80.04;100821.70;2763545;86;21034;-68
2021/10/16 09:41:35;;;;;;;11.97;4.70;;;;;;;13.27;81.33;100812.98;2763813;86;21101;-69
2021/10/16 09:45:38;;;;;;;14.30;6.37;;;;;;;13.50;77.54;100819.55;2763836;86;21086;-68
2021/10/16 09:49:57;;;;;;;20.15;6.33;;;;;;;13.54;79.03;100820.46;2764136;86;21063;-68
2021/10/16 09:54:08;;;;;;;11.43;4.70;;;;;;;13.67;76.95;100833.64;2764775;84;21558;-68
2021/10/16 09:58:12;;;;;;;9.90;4.65;;;;;;;13.67;77.21;100829.63;2767940;86;21050;-68
2021/10/16 10:02:18;;;;;;;10.25;6.05;;;;;;;13.73;75.29;100837.58;2741576;86;21078;-68
2021/10/16 10:06:22;;;;;;;14.25;6.12;;;;;;;13.85;75.60;100835.19;2767951;86;20983;-68
2021/10/16 10:10:25;;;;;;;14.90;4.35;;;;;;;13.98;74.54;100840.81;2767642;86;21058;-69
2021/10/16 10:14:29;;;;;;;8.67;3.93;;;;;;;14.07;74.08;100837.83;2783509;83;21093;-70
2021/10/16 10:22:51;;;;;;;9.58;4.10;;;;;;;14.08;73.32;100837.67;2791580;84;21026;-70
2021/10/16 10:26:56;;;;;;;10.45;4.12;;;;;;;13.99;70.17;100843.34;2814777;84;21078;-68
2021/10/16 10:30:57;;;;;;;16.25;4.47;;;;;;;13.96;70.79;100840.11;2784936;84;21039;-70
2021/10/16 10:35:07;;;;;;;7.53;4.83;;;;;;;13.85;70.86;100835.19;2814884;84;21043;-70
2021/10/16 10:39:36;;;;;;;14.95;4.08;;;;;;;13.90;72.65;100835.27;2814525;84;21046;-70
2021/10/16 10:43:40;;;;;;;9.20;5.00;;;;;;;13.96;69.94;100833.42;2786918;84;21007;-70
2021/10/16 10:47:47;;;;;;;6.62;3.98;;;;;;;13.97;69.73;100830.59;2799079;84;21110;-70
2021/10/16 10:51:59;;;;;;;8.53;3.92;;;;;;;13.94;68.37;100827.33;2811016;84;21052;-72
2021/10/16 10:56:07;;;;;;;9.35;3.98;;;;;;;13.88;68.02;100820.72;2792109;84;21073;-70
2021/10/16 11:00:13;;;;;;;11.03;3.72;;;;;;;13.89;68.58;100808.18;2822489;84;21054;-70
2021/10/16 11:04:34;;;;;;;10.77;3.83;;;;;;;13.94;68.09;100813.48;2822733;84;21073;-71
2021/10/16 11:08:36;;;;;;;7.58;2.45;;;;;;;13.94;68.09;100813.48;2691074;87;21548;-71
2021/10/16 11:12:41;;;;;;;11.83;3.70;;;;;;;14.08;68.07;100804.74;2702759;88;21098;-72
2021/10/16 11:17:08;;;;;;;15.63;4.15;;;;;;;14.10;66.36;100798.25;2710022;88;21081;-71
2021/10/16 11:21:11;;;;;;;7.60;3.37;;;;;;;14.21;66.69;100806.66;2697734;88;21081;-71
2021/10/16 11:25:23;;;;;;;7.10;3.15;;;;;;;14.26;65.58;100804.45;2695175;88;21030;-70
2021/10/16 11:29:40;;;;;;;9.63;3.60;;;;;;;14.43;67.13;100799.37;2709424;88;21096;-72
2021/10/16 11:33:42;;;;;;;5.75;2.52;;;;;;;14.42;65.59;100794.53;2709522;88;21156;-70
2021/10/16 11:37:47;;;;;;;3.98;2.17;;;;;;;14.48;66.11;100784.25;2666978;88;21056;-71
2021/10/16 11:41:54;;;;;;;7.03;2.95;;;;;;;14.59;64.05;100788.14;2699023;88;21116;-70
2021/10/16 11:45:56;;;;;;;9.18;3.30;;;;;;;14.61;65.47;100781.30;2807071;84;20998;-71
2021/10/16 11:50:10;;;;;;;9.20;2.20;;;;;;;14.69;66.68;100771.58;2822839;84;21037;-71
2021/10/16 11:54:18;;;;;;;7.00;2.90;;;;;;;14.75;64.19;100767.53;2818063;83;21059;-70
2021/10/16 11:58:24;;;;;;;6.47;2.22;;;;;;;14.79;65.36;100765.42;2810036;84;21105;-70
2021/10/16 12:02:35;;;;;;;4.65;2.12;;;;;;;14.82;63.92;100767.81;2788749;84;21082;-70
2021/10/16 12:06:38;;;;;;;8.38;1.60;;;;;;;14.69;63.67;100762.20;2809602;84;21035;-70
2021/10/16 12:10:49;;;;;;;4.90;2.55;;;;;;;14.60;62.28;100756.38;2810520;84;21098;-70
2021/10/16 12:14:51;;;;;;;5.72;2.45;;;;;;;14.54;63.99;100756.91;2763943;86;21129;-70
2021/10/16 12:18:56;;;;;;;4.45;2.17;;;;;;;14.61;64.10;100767.43;2763934;86;21113;-70
2021/10/16 12:23:00;;;;;;;7.92;2.52;;;;;;;14.62;62.18;100761.56;2764364;86;21054;-70
2021/10/16 12:27:09;;;;;;;6.42;2.70;;;;;;;14.68;63.68;100753.82;2764874;84;21090;-70
2021/10/16 12:31:10;;;;;;;3.65;1.70;;;;;;;14.50;61.41;100751.02;2772816;84;21077;-70
2021/10/16 12:35:20;;;;;;;7.00;2.67;;;;;;;14.32;62.93;100756.19;2810222;84;21300;-70
2021/10/16 12:39:38;;;;;;;7.37;2.77;;;;;;;14.23;62.15;100753.03;2810470;84;21069;-70
2021/10/16 12:43:40;;;;;;;4.80;1.75;;;;;;;14.10;62.04;100748.77;2809225;84;21050;-70
2021/10/16 12:47:42;;;;;;;4.08;1.82;;;;;;;14.01;62.77;100749.61;2810239;82;21098;-70
2021/10/16 12:51:44;;;;;;;5.72;2.98;;;;;;;13.93;62.41;100745.41;2810081;83;21051;-69
2021/10/16 12:55:46;;;;;;;5.17;2.25;;;;;;;13.78;64.01;100745.81;2836031;83;21115;-70
2021/10/16 12:59:48;;;;;;;4.08;2.22;;;;;;;13.76;63.95;100752.27;2856588;83;21083;-70
2021/10/16 13:03:49;;;;;;;5.35;3.20;;;;;;;13.66;64.68;100760.25;2845210;83;21094;-70
2021/10/16 13:49:16;;;;;;;5.67;2.72;;;;;;;13.80;67.94;100738.50;2801323;82;41103;-69
2021/10/16 13:53:18;;;;;;;8.13;4.17;;;;;;;13.88;67.96;100739.63;2800727;85;21077;-69
2021/10/16 13:57:19;;;;;;;14.98;4.47;;;;;;;13.89;67.77;100742.19;2800527;83;21029;-69
2021/10/16 14:01:21;;;;;;;8.50;3.02;;;;;;;13.90;68.29;100738.53;2800535;85;20967;-69
2021/10/16 14:05:23;;;;;;;4.53;3.27;;;;;;;13.87;66.97;100738.81;2800533;85;21010;-70
2021/10/16 14:09:25;;;;;;;13.50;3.85;;;;;;;13.87;67.91;100736.61;2800421;85;21049;-69
2021/10/16 14:13:27;;;;;;;8.65;4.20;;;;;;;14.04;69.18;100739.10;2800632;85;21065;-69
2021/10/16 14:17:29;;;;;;;14.43;4.90;;;;;;;14.13;66.90;100741.80;2800205;85;20999;-69
2021/10/16 14:21:31;;;;;;;9.38;3.85;;;;;;;14.02;66.52;100733.91;2799855;85;21053;-69
2021/10/16 14:25:32;;;;;;;6.62;4.45;;;;;;;13.92;67.54;100733.89;2800438;85;21030;-69
2021/10/16 14:29:34;;;;;;;16.65;6.90;;;;;;;13.82;68.25;100731.19;2800010;85;21030;-69
2021/10/16 14:33:36;;;;;;;6.60;3.58;;;;;;;13.77;67.91;100724.55;2800183;85;21050;-69
2021/10/16 14:37:38;;;;;;;8.63;3.72;;;;;;;13.67;68.76;100725.85;2800318;85;21082;-69
2021/10/16 14:41:39;;;;;;;12.98;7.65;;;;;;;13.59;69.21;100731.87;2800375;85;21050;-69
2021/10/16 14:45:41;;;;;;;18.00;6.85;;;;;;;13.58;69.21;100730.17;2800356;85;21560;-69
2021/10/16 14:49:42;;;;;;;10.75;6.25;;;;;;;13.58;69.08;100734.70;2800311;85;21006;-68
2021/10/16 14:53:44;;;;;;;6.92;5.53;;;;;;;13.56;69.05;100741.50;2800527;85;20994;-69
2021/10/16 14:57:46;;;;;;;21.55;6.20;;;;;;;13.43;69.38;100741.73;2800418;85;21010;-69
2021/10/16 15:01:47;;;;;;;12.60;5.72;;;;;;;13.35;70.12;100738.34;2800310;85;21033;-69
2021/10/16 15:05:52;;;;;;;10.85;4.12;;;;;;;13.36;70.25;100735.17;2800483;85;21014;-69
2021/10/16 15:09:54;;;;;;;18.87;8.38;;;;;;;13.35;69.24;100733.48;2800340;85;21014;-69
2021/10/16 15:13:56;;;;;;;15.55;8.40;;;;;;;13.30;70.89;100735.23;2800104;85;21033;-68
2021/10/16 15:17:58;;;;;;;11.10;4.35;;;;;;;13.28;71.64;100737.20;2800419;85;21447;-69
2021/10/16 15:21:59;;;;;;;10.63;4.08;;;;;;;13.25;70.97;100735.63;2800537;85;21038;-69
2021/10/16 15:26:01;;;;;;;7.28;4.33;;;;;;;13.24;71.43;100733.07;2800082;85;21073;-69
2021/10/16 15:30:04;;;;;;;8.55;4.28;;;;;;;13.26;72.11;100735.12;2800663;85;21109;-69
2021/10/16 15:34:06;;;;;;;8.95;3.83;;;;;;;13.26;72.41;100735.98;2800305;85;21037;-69
2021/10/16 15:38:07;;;;;;;5.78;3.00;;;;;;;13.28;73.17;100739.36;2800555;85;20955;-68
2021/10/16 15:42:09;;;;;;;7.47;4.17;;;;;;;13.21;73.55;100739.55;2800556;85;21070;-69
2021/10/16 15:46:11;;;;;;;7.78;5.15;;;;;;;12.99;73.61;100738.72;2798673;84;21026;-69
2021/10/16 15:50:12;;;;;;;8.30;4.37;;;;;;;12.82;73.42;100748.13;2783725;85;21030;-69
2021/10/16 15:54:14;;;;;;;9.00;5.35;;;;;;;12.64;73.33;100747.87;2783942;85;21026;-70
2021/10/16 15:58:17;;;;;;;13.90;5.37;;;;;;;12.56;74.21;100756.51;2783965;85;21017;-69
2021/10/16 16:02:20;;;;;;;11.38;5.00;;;;;;;12.48;74.81;100754.11;2799620;85;21030;-69
2021/10/16 16:06:22;;;;;;;8.98;5.33;;;;;;;12.47;74.30;100755.09;2783640;85;21066;-68
2021/10/16 16:10:24;;;;;;;10.18;5.80;;;;;;;12.32;73.83;100763.38;2783579;85;21034;-67
2021/10/16 16:14:26;;;;;;;7.95;6.30;;;;;;;12.23;74.65;100767.63;2783785;85;21038;-68
2021/10/16 16:18:29;;;;;;;8.80;5.75;;;;;;;12.14;74.93;100769.23;2799780;85;21034;-67
2021/10/16 16:22:30;;;;;;;16.23;6.47;;;;;;;12.16;75.11;100773.12;2783929;85;21027;-68
2021/10/16 16:26:32;;;;;;;52.67;33.15;;;;;;;12.23;75.31;100780.14;2783885;85;21054;-68
2021/10/16 16:30:34;;;;;;;40.85;20.95;;;;;;;12.30;75.22;100784.50;2783702;85;21034;-67
2021/10/16 16:34:36;;;;;;;37.58;23.65;;;;;;;12.31;75.06;100787.02;2783938;85;21505;-67
2021/10/16 16:38:39;;;;;;;23.80;14.50;;;;;;;12.33;75.13;100782.91;2784080;85;21562;-68
2021/10/16 16:42:41;;;;;;;31.50;12.85;;;;;;;12.33;75.03;100783.73;2799727;84;20998;-67
2021/10/16 16:46:43;;;;;;;48.00;20.57;;;;;;;12.33;75.02;100791.74;2810201;83;21059;-67
2021/10/16 16:50:44;;;;;;;86.60;34.10;;;;;;;12.35;75.13;100796.46;2802946;84;21026;-67
2021/10/16 16:54:46;;;;;;;110.50;40.03;;;;;;;12.37;75.19;100797.18;2830104;84;21074;-67
2021/10/16 16:58:48;;;;;;;21.90;10.72;;;;;;;12.37;75.12;100794.52;2830961;83;21448;-67
2021/10/16 17:02:49;;;;;;;12.23;7.78;;;;;;;12.40;75.26;100800.95;2830212;84;21031;-67
2021/10/16 17:06:51;;;;;;;15.55;7.80;;;;;;;12.38;74.96;100796.23;2803258;84;21006;-67
2021/10/16 17:10:53;;;;;;;15.40;8.65;;;;;;;12.38;75.11;100788.70;2783340;85;21018;-68
2021/10/16 17:14:55;;;;;;;15.75;12.03;;;;;;;12.38;75.50;100790.91;2783147;85;21027;-67
2021/10/16 17:18:57;;;;;;;25.37;12.63;;;;;;;12.40;75.34;100790.28;2783234;84;21042;-68
2021/10/16 17:22:59;;;;;;;23.70;13.28;;;;;;;12.33;75.01;100791.74;2781631;84;21063;-68
2021/10/16 17:27:01;;;;;;;15.78;11.38;;;;;;;12.31;75.70;100795.02;2780490;85;21134;-68
2021/10/16 17:31:03;;;;;;;14.18;9.68;;;;;;;12.26;75.91;100790.55;2782691;85;21011;-68
2021/10/16 17:35:07;;;;;;;19.92;11.28;;;;;;;12.26;75.87;100794.05;2783344;84;21030;-68
2021/10/16 17:39:10;;;;;;;25.02;12.25;;;;;;;12.26;75.74;100795.89;2783037;85;21003;-68
2021/10/16 17:43:12;;;;;;;18.12;12.03;;;;;;;12.23;75.87;100796.97;2783162;85;21006;-68
2021/10/16 17:47:14;;;;;;;17.23;9.98;;;;;;;12.21;75.63;100795.42;2784072;85;21034;-68
2021/10/16 17:51:16;;;;;;;27.75;15.35;;;;;;;12.20;75.56;100792.39;2783024;83;21073;-68
2021/10/16 17:55:21;;;;;;;27.95;18.23;;;;;;;12.14;75.21;100786.56;2782937;85;21022;-68
2021/10/16 17:59:20;;;;;;;31.45;20.15;;;;;;;12.14;75.42;100787.89;2782821;85;21034;-68
2021/10/16 18:03:22;;;;;;;48.42;19.85;;;;;;;12.05;74.91;100780.66;2783538;85;20992;-68
2021/10/16 18:07:24;;;;;;;31.68;17.92;;;;;;;11.95;74.92;100773.84;2783718;85;21023;-68
2021/10/16 18:11:27;;;;;;;40.55;20.25;;;;;;;11.85;75.06;100776.40;2783386;85;21030;-68
2021/10/16 18:15:28;;;;;;;39.20;22.42;;;;;;;11.70;75.04;100775.80;2783446;85;21566;-68
2021/10/16 18:19:30;;;;;;;42.25;23.80;;;;;;;11.54;75.23;100773.98;2779987;85;21026;-68
2021/10/16 18:23:32;;;;;;;43.15;26.27;;;;;;;11.43;75.33;100781.48;2782805;85;21066;-68
2021/10/16 18:27:37;;;;;;;44.67;26.95;;;;;;;11.34;75.46;100775.52;2782595;85;21015;-68
2021/10/16 18:31:39;;;;;;;39.08;26.68;;;;;;;11.28;75.64;100772.37;2782459;85;21070;-68
2021/10/16 18:35:41;;;;;;;37.23;22.00;;;;;;;11.18;75.64;100767.88;2782643;85;21633;-68
2021/10/16 18:39:42;;;;;;;43.28;26.57;;;;;;;11.02;75.95;100772.20;2782809;85;21050;-68
2021/10/16 18:43:44;;;;;;;49.93;26.35;;;;;;;10.82;76.50;100770.56;2782537;85;21019;-68
2021/10/16 18:47:46;;;;;;;38.02;25.85;;;;;;;10.69;76.60;100779.45;2780863;85;21067;-69
2021/10/16 18:51:48;;;;;;;33.10;22.48;;;;;;;10.63;76.98;100779.06;2775768;85;21038;-68
2021/10/16 18:55:50;;;;;;;29.60;19.37;;;;;;;10.59;76.89;100778.43;2775706;85;21010;-69
2021/10/16 18:59:51;;;;;;;46.88;25.08;;;;;;;10.54;76.89;100784.58;2775542;85;21039;-69
2021/10/16 19:03:53;;;;;;;35.45;21.10;;;;;;;10.50;77.38;100775.14;2775797;85;20983;-69
2021/10/16 19:07:54;;;;;;;42.95;27.27;;;;;;;10.50;77.58;100777.80;2775900;85;20980;-69
2021/10/16 19:11:57;;;;;;;48.33;28.83;;;;;;;10.48;77.76;100779.72;2776424;85;21042;-69
2021/10/16 19:15:58;;;;;;;36.10;21.33;;;;;;;10.45;77.98;100785.27;2775842;85;21015;-70
2021/10/16 19:20:00;;;;;;;39.27;20.48;;;;;;;10.41;78.10;100785.97;2776168;85;21062;-70
2021/10/16 19:24:03;;;;;;;36.13;21.97;;;;;;;10.39;78.08;100785.20;2776909;84;21043;-71
2021/10/16 19:28:05;;;;;;;36.33;23.15;;;;;;;10.37;78.00;100782.64;2769047;85;21046;-71
2021/10/16 19:32:07;;;;;;;34.40;20.40;;;;;;;10.34;78.28;100788.19;2774651;83;21046;-71